createdAt,value
2023-07-16T00:01:56.317Z,4.93
2023-07-16T00:04:23.166Z,4.90
2023-07-16T00:06:49.872Z,4.03
2023-07-16T00:09:16.637Z,2.53
2023-07-16T00:11:43.245Z,5.20
2023-07-16T00:14:12.595Z,5.32
2023-07-16T00:16:42.844Z,3.35
2023-07-16T00:19:12.514Z,2.15
2023-07-16T00:21:39.814Z,2.83
2023-07-16T00:24:06.601Z,3.90
2023-07-16T00:26:33.362Z,4.90
2023-07-16T00:29:00.007Z,4.18
2023-07-16T00:31:26.574Z,3.08
2023-07-16T00:33:53.216Z,4.00
2023-07-16T00:36:19.856Z,3.90
2023-07-16T00:38:47.001Z,5.68
2023-07-16T00:41:15.686Z,6.85
2023-07-16T00:43:42.461Z,5.20
2023-07-16T00:46:09.910Z,4.87
2023-07-16T00:48:36.769Z,4.90
2023-07-16T00:51:05.301Z,6.15
2023-07-16T00:53:32.789Z,3.50
2023-07-16T00:55:59.834Z,2.95
2023-07-16T00:58:26.917Z,5.90
2023-07-16T01:00:53.840Z,3.35
2023-07-16T01:03:20.594Z,4.88
2023-07-16T01:06:09.328Z,3.28
2023-07-16T01:08:44.003Z,7.75
2023-07-16T01:11:11.167Z,3.83
2023-07-16T01:13:38.251Z,4.82
2023-07-16T01:16:05.259Z,2.00
2023-07-16T01:18:31.940Z,5.22
2023-07-16T01:20:58.826Z,4.50
2023-07-16T01:23:40.784Z,5.97
2023-07-16T01:26:16.719Z,7.15
2023-07-16T01:28:55.693Z,2.88
2023-07-16T01:31:23.580Z,7.63
2023-07-16T01:33:52.146Z,5.63
2023-07-16T01:36:20.606Z,4.97
2023-07-16T01:38:47.546Z,6.35
2023-07-16T01:41:14.521Z,2.95
2023-07-16T01:43:41.062Z,4.13
2023-07-16T01:46:07.817Z,4.50
2023-07-16T01:48:36.656Z,4.93
2023-07-16T01:51:04.400Z,3.88
2023-07-16T01:53:34.337Z,6.63
2023-07-16T01:56:03.221Z,7.40
2023-07-16T01:58:29.941Z,6.80
2023-07-16T02:00:56.640Z,5.67
2023-07-16T02:03:27.287Z,3.63
2023-07-16T02:05:54.016Z,5.22
2023-07-16T02:08:20.617Z,4.05
2023-07-16T02:10:49.717Z,5.45
2023-07-16T02:13:20.211Z,3.93
2023-07-16T02:15:49.251Z,6.65
2023-07-16T02:18:15.939Z,9.50
2023-07-16T02:20:44.212Z,5.05
2023-07-16T02:23:11.035Z,6.65
2023-07-16T02:25:37.685Z,5.20
2023-07-16T02:28:04.420Z,5.80
2023-07-16T02:30:31.059Z,4.93
2023-07-16T02:32:57.783Z,4.07
2023-07-16T02:35:25.874Z,6.05
2023-07-16T02:37:52.614Z,6.47
2023-07-16T02:40:24.470Z,5.78
2023-07-16T02:42:51.369Z,6.50
2023-07-16T02:45:18.149Z,5.90
2023-07-16T02:47:47.250Z,8.35
2023-07-16T02:50:13.930Z,7.70
2023-07-16T02:52:40.717Z,4.78
2023-07-16T02:55:07.716Z,8.15
2023-07-16T02:57:34.448Z,9.10
2023-07-16T03:00:01.033Z,6.50
2023-07-16T03:02:49.186Z,5.93
2023-07-16T03:05:21.805Z,7.18
2023-07-16T03:07:48.582Z,7.47
2023-07-16T03:10:15.280Z,3.83
2023-07-16T03:12:42.106Z,4.55
2023-07-16T03:15:09.438Z,10.17
2023-07-16T03:17:36.209Z,4.50
2023-07-16T03:20:05.473Z,6.28
2023-07-16T03:22:32.524Z,5.25
2023-07-16T03:24:59.217Z,7.05
2023-07-16T03:27:25.847Z,8.93
2023-07-16T03:29:52.620Z,5.10
2023-07-16T03:32:19.442Z,4.10
2023-07-16T03:34:46.095Z,5.13
2023-07-16T03:37:12.713Z,5.43
2023-07-16T03:39:39.558Z,4.67
2023-07-16T03:42:09.262Z,5.07
2023-07-16T03:44:35.909Z,5.80
2023-07-16T03:47:02.570Z,8.70
2023-07-16T03:49:32.317Z,3.58
2023-07-16T03:51:58.885Z,5.73
2023-07-16T03:54:25.528Z,6.13
2023-07-16T03:56:52.317Z,4.90
2023-07-16T03:59:18.955Z,6.38
2023-07-16T04:01:46.758Z,5.80
2023-07-16T04:04:13.442Z,4.87
2023-07-16T04:06:40.077Z,4.65
2023-07-16T04:09:11.027Z,5.60
2023-07-16T04:11:37.651Z,4.40
2023-07-16T04:14:04.306Z,4.38
2023-07-16T04:16:31.042Z,6.87
2023-07-16T04:19:00.272Z,4.30
2023-07-16T04:21:26.885Z,6.93
2023-07-16T04:23:53.471Z,7.38
2023-07-16T04:26:20.023Z,6.68
2023-07-16T04:28:46.676Z,5.87
2023-07-16T04:31:13.407Z,5.68
2023-07-16T04:33:40.505Z,5.22
2023-07-16T04:36:08.610Z,5.85
2023-07-16T04:38:35.323Z,5.45
2023-07-16T04:41:02.017Z,7.20
2023-07-16T04:43:28.681Z,5.95
2023-07-16T04:46:02.052Z,6.57
2023-07-16T04:48:28.734Z,7.45
2023-07-16T04:50:58.010Z,6.32
2023-07-16T04:53:25.234Z,7.80
2023-07-16T04:55:51.962Z,5.07
2023-07-16T04:58:18.559Z,7.60
2023-07-16T05:00:45.315Z,4.53
2023-07-16T05:03:12.011Z,5.35
2023-07-16T05:05:38.651Z,4.87
2023-07-16T05:08:06.854Z,7.20
2023-07-16T05:10:34.711Z,5.10
2023-07-16T05:13:01.307Z,8.52
2023-07-16T05:15:27.977Z,8.60
2023-07-16T05:17:55.759Z,5.43
2023-07-16T05:20:22.504Z,3.70
2023-07-16T05:22:49.140Z,5.63
2023-07-16T05:25:18.339Z,6.70
2023-07-16T05:27:44.980Z,5.25
2023-07-16T05:30:13.673Z,7.70
2023-07-16T05:32:41.548Z,6.45
2023-07-16T05:35:08.626Z,5.45
2023-07-16T05:37:35.369Z,9.73
2023-07-16T05:40:02.087Z,7.68
2023-07-16T05:42:28.892Z,6.93
2023-07-16T05:44:55.725Z,5.78
2023-07-16T05:47:22.677Z,7.68
2023-07-16T05:49:51.664Z,5.45
2023-07-16T05:52:18.719Z,5.72
2023-07-16T05:54:46.219Z,7.40
2023-07-16T05:57:13.164Z,5.55
2023-07-16T05:59:40.142Z,7.40
2023-07-16T06:02:18.450Z,6.97
2023-07-16T06:04:45.681Z,5.75
2023-07-16T06:07:13.986Z,7.87
2023-07-16T06:09:40.660Z,5.60
2023-07-16T06:12:07.336Z,5.55
2023-07-16T06:14:33.927Z,8.27
2023-07-16T06:17:00.667Z,6.82
2023-07-16T06:19:27.362Z,7.37
2023-07-16T06:21:53.950Z,6.70
2023-07-16T06:24:24.215Z,6.82
2023-07-16T06:26:50.805Z,6.57
2023-07-16T06:29:17.410Z,9.60
2023-07-16T06:31:45.784Z,9.20
2023-07-16T06:34:12.419Z,8.38
2023-07-16T06:36:39.372Z,6.25
2023-07-16T06:39:30.992Z,6.97
2023-07-16T06:41:57.608Z,6.68
2023-07-16T06:44:24.871Z,7.83
2023-07-16T06:46:52.204Z,9.40
2023-07-16T06:49:24.432Z,8.90
2023-07-16T06:51:51.111Z,7.60
2023-07-16T06:54:18.840Z,7.57
2023-07-16T06:56:46.837Z,6.00
2023-07-16T06:59:17.085Z,5.13
2023-07-16T07:01:44.039Z,6.13
2023-07-16T07:04:18.349Z,9.07
2023-07-16T07:06:47.018Z,5.35
2023-07-16T07:09:13.781Z,7.43
2023-07-16T07:11:42.820Z,9.63
2023-07-16T07:14:12.117Z,8.82
2023-07-16T07:16:44.835Z,6.03
2023-07-16T07:19:11.621Z,9.38
2023-07-16T07:21:38.397Z,10.37
2023-07-16T07:24:11.361Z,6.22
2023-07-16T07:26:43.472Z,7.93
2023-07-16T07:29:11.825Z,9.13
2023-07-16T07:31:39.356Z,5.35
2023-07-16T07:34:07.919Z,6.80
2023-07-16T07:36:36.985Z,6.22
2023-07-16T07:42:02.758Z,9.75
2023-07-16T07:44:29.445Z,9.60
2023-07-16T07:46:57.006Z,7.90
2023-07-16T07:49:23.992Z,8.40
2023-07-16T07:51:50.642Z,10.88
2023-07-16T07:54:17.555Z,8.60
2023-07-16T07:56:46.914Z,9.35
2023-07-16T07:59:13.606Z,8.87
2023-07-16T08:01:40.226Z,6.13
2023-07-16T08:04:06.980Z,7.97
2023-07-16T08:06:33.841Z,6.97
2023-07-16T08:09:00.550Z,9.20
2023-07-16T08:11:27.138Z,9.00
2023-07-16T08:13:54.790Z,7.32
2023-07-16T08:16:21.430Z,7.07
2023-07-16T08:18:48.102Z,8.07
2023-07-16T08:21:20.836Z,7.05
2023-07-16T08:23:50.381Z,5.73
2023-07-16T08:26:18.247Z,9.32
2023-07-16T08:28:45.541Z,6.10
2023-07-16T08:31:13.900Z,7.03
2023-07-16T08:33:41.096Z,6.97
2023-07-16T08:36:07.713Z,6.70
2023-07-16T08:38:34.479Z,8.25
2023-07-16T08:41:03.105Z,6.05
2023-07-16T08:43:30.514Z,7.07
2023-07-16T08:45:57.510Z,7.88
2023-07-16T08:48:24.501Z,7.03
2023-07-16T08:50:51.284Z,8.70
2023-07-16T08:53:18.521Z,5.53
2023-07-16T08:55:45.877Z,8.93
2023-07-16T08:58:16.357Z,9.40
2023-07-16T09:00:45.105Z,7.90
2023-07-16T09:03:14.848Z,6.78
2023-07-16T09:05:41.813Z,6.80
2023-07-16T09:08:09.862Z,7.13
2023-07-16T09:10:36.896Z,7.03
2023-07-16T09:13:03.724Z,6.67
2023-07-16T09:15:31.157Z,6.88
2023-07-16T09:17:58.050Z,8.13
2023-07-16T09:20:26.136Z,6.78
2023-07-16T09:22:56.555Z,8.10
2023-07-16T09:25:27.946Z,6.80
2023-07-16T09:27:54.816Z,7.57
2023-07-16T09:30:21.611Z,5.15
2023-07-16T09:32:48.311Z,8.05
2023-07-16T09:35:17.062Z,6.75
2023-07-16T09:37:44.580Z,8.60
2023-07-16T09:40:12.779Z,8.05
2023-07-16T09:42:41.338Z,7.13
2023-07-16T09:45:09.429Z,7.43
2023-07-16T09:47:36.382Z,6.50
2023-07-16T09:50:05.847Z,7.83
2023-07-16T09:52:34.268Z,6.20
2023-07-16T09:55:03.754Z,8.88
2023-07-16T09:57:36.334Z,4.68
2023-07-16T10:00:07.050Z,7.25
2023-07-16T10:02:36.568Z,8.87
2023-07-16T10:05:14.085Z,6.93
2023-07-16T10:07:41.228Z,6.68
2023-07-16T10:10:10.399Z,7.78
2023-07-16T10:12:38.581Z,4.63
2023-07-16T10:15:06.929Z,6.13
2023-07-16T10:17:34.656Z,6.13
2023-07-16T10:20:09.047Z,7.13
2023-07-16T10:22:44.347Z,7.38
2023-07-16T10:25:27.959Z,7.07
2023-07-16T10:27:55.231Z,6.20
2023-07-16T10:30:22.354Z,6.20
2023-07-16T10:32:51.655Z,5.90
2023-07-16T10:35:18.345Z,5.43
2023-07-16T10:37:44.989Z,5.35
2023-07-16T10:40:15.499Z,7.87
2023-07-16T10:42:44.925Z,7.25
2023-07-16T10:45:11.669Z,8.27
2023-07-16T10:47:40.890Z,9.68
2023-07-16T10:50:11.014Z,6.35
2023-07-16T10:52:39.623Z,4.80
2023-07-16T10:55:06.619Z,7.20
2023-07-16T10:57:33.343Z,8.40
2023-07-16T11:00:01.373Z,5.35
2023-07-16T11:02:29.537Z,7.13
2023-07-16T11:04:59.485Z,4.57
2023-07-16T11:07:27.575Z,5.57
2023-07-16T11:09:55.787Z,6.50
2023-07-16T11:12:24.115Z,4.80
2023-07-16T11:14:56.465Z,8.05
2023-07-16T11:17:25.776Z,5.97
2023-07-16T11:19:53.856Z,6.55
2023-07-16T11:22:20.670Z,5.35
2023-07-16T11:24:49.142Z,4.80
2023-07-16T11:27:17.763Z,6.32
2023-07-16T11:29:50.462Z,4.80
2023-07-16T11:32:36.559Z,5.95
2023-07-16T11:35:05.330Z,5.00
2023-07-16T11:37:33.569Z,6.75
2023-07-16T11:40:04.609Z,4.88
2023-07-16T11:42:35.138Z,5.50
2023-07-16T11:45:03.530Z,6.45
2023-07-16T11:47:30.768Z,4.90
2023-07-16T11:49:58.547Z,7.22
2023-07-16T11:52:28.235Z,6.72
2023-07-16T11:54:57.785Z,6.63
2023-07-16T11:57:24.546Z,6.18
2023-07-16T11:59:51.156Z,4.35
2023-07-16T12:02:17.951Z,3.15
2023-07-16T12:04:44.645Z,3.83
2023-07-16T12:07:11.427Z,4.47
2023-07-16T12:09:38.061Z,3.28
2023-07-16T12:12:05.503Z,6.03
2023-07-16T12:14:32.728Z,9.68
2023-07-16T12:16:59.585Z,3.55
2023-07-16T12:19:26.386Z,2.90
2023-07-16T12:21:54.447Z,3.17
2023-07-16T12:24:21.342Z,4.03
2023-07-16T12:26:47.900Z,3.58
2023-07-16T12:29:14.582Z,2.70
2023-07-16T12:31:41.185Z,3.40
2023-07-16T12:34:07.866Z,2.05
2023-07-16T12:36:34.500Z,2.47
2023-07-16T12:39:01.514Z,4.07
2023-07-16T12:49:47.543Z,5.93
2023-07-16T12:52:14.235Z,4.15
2023-07-16T13:04:23.139Z,3.28
2023-07-16T13:13:04.434Z,5.80
2023-07-16T13:18:49.045Z,3.67
2023-07-16T13:21:15.674Z,2.50
2023-07-16T13:27:15.177Z,5.72
2023-07-16T13:32:31.226Z,3.10
2023-07-16T13:35:11.432Z,4.45
2023-07-16T13:38:11.028Z,4.28
2023-07-16T13:40:48.127Z,3.25
2023-07-16T13:43:20.788Z,1.87
2023-07-16T13:45:50.541Z,1.95
2023-07-16T13:51:07.582Z,5.40
2023-07-16T13:59:51.816Z,3.03
2023-07-16T14:02:48.905Z,3.05
2023-07-16T14:05:24.477Z,3.35
2023-07-16T14:13:54.327Z,2.40
2023-07-16T14:21:54.391Z,2.38
2023-07-16T14:24:27.052Z,2.90
2023-07-16T14:36:21.244Z,2.58
2023-07-16T14:38:50.417Z,2.90
2023-07-16T14:41:20.178Z,3.73
2023-07-16T14:50:11.153Z,5.80
2023-07-16T14:53:04.986Z,4.15
2023-07-16T14:56:03.396Z,2.10
2023-07-16T14:58:39.581Z,3.75
2023-07-16T15:01:09.567Z,3.72
2023-07-16T15:12:02.301Z,4.43
2023-07-16T15:14:30.585Z,7.47
2023-07-16T15:19:48.236Z,3.30
2023-07-16T15:25:37.171Z,2.65
2023-07-16T15:35:32.471Z,2.75
2023-07-16T15:53:02.317Z,3.00
2023-07-16T15:55:33.903Z,2.75
2023-07-16T16:07:20.004Z,3.73
2023-07-16T16:19:30.453Z,4.43
2023-07-16T16:26:19.613Z,3.15
2023-07-16T16:28:50.996Z,1.58
2023-07-16T16:31:45.958Z,3.80
2023-07-16T16:47:19.097Z,3.17
2023-07-16T16:55:19.279Z,2.97
2023-07-16T17:12:50.943Z,2.67
2023-07-16T17:15:41.391Z,3.22
2023-07-16T17:18:10.001Z,5.22
2023-07-16T17:20:36.989Z,3.27
2023-07-16T17:23:42.558Z,4.65
2023-07-16T17:26:09.311Z,3.60
2023-07-16T17:28:39.005Z,3.17
2023-07-16T17:33:50.368Z,2.50
2023-07-16T17:36:17.010Z,2.95
2023-07-16T17:38:43.808Z,6.20
2023-07-16T17:41:10.486Z,4.00
2023-07-16T17:43:37.113Z,3.85
2023-07-16T17:46:03.861Z,5.67
2023-07-16T17:48:33.466Z,5.47
2023-07-16T17:51:00.760Z,5.03
2023-07-16T17:53:27.474Z,3.97
2023-07-16T17:55:57.209Z,5.55
2023-07-16T17:58:23.775Z,8.80
2023-07-16T18:00:56.921Z,5.80
2023-07-16T18:03:23.888Z,6.72
2023-07-16T18:05:51.297Z,8.52
2023-07-16T18:08:19.622Z,9.68
2023-07-16T18:10:48.285Z,8.93
2023-07-16T18:13:15.410Z,6.43
2023-07-16T18:15:42.070Z,5.68
2023-07-16T18:18:09.170Z,7.68
2023-07-16T18:20:36.141Z,6.75
2023-07-16T18:23:03.962Z,5.00
2023-07-16T18:25:30.657Z,8.68
2023-07-16T18:27:59.450Z,8.13
2023-07-16T18:30:26.228Z,6.28
2023-07-16T18:32:52.895Z,6.65
2023-07-16T18:35:25.320Z,5.23
2023-07-16T18:37:51.939Z,7.53
2023-07-16T18:40:18.482Z,5.38
2023-07-16T18:42:46.992Z,6.32
2023-07-16T18:45:13.697Z,5.55
2023-07-16T18:47:40.319Z,7.27
2023-07-16T18:50:10.379Z,10.20
2023-07-16T18:52:37.162Z,4.95
2023-07-16T18:55:04.773Z,8.52
2023-07-16T18:57:31.611Z,5.65
2023-07-16T18:59:59.206Z,5.90
2023-07-16T19:02:26.303Z,8.10
2023-07-16T19:04:53.111Z,6.63
2023-07-16T19:07:19.874Z,5.82
2023-07-16T19:09:46.503Z,4.15
2023-07-16T19:12:13.332Z,7.47
2023-07-16T19:14:39.945Z,5.75
2023-07-16T19:17:14.111Z,7.57
2023-07-16T19:19:40.799Z,5.43
2023-07-16T19:22:08.118Z,7.82
2023-07-16T19:24:34.926Z,6.47
2023-07-16T19:27:03.126Z,4.72
2023-07-16T19:29:29.895Z,4.38
2023-07-16T19:31:56.575Z,4.15
2023-07-16T19:34:23.381Z,3.75
2023-07-16T19:36:50.111Z,5.60
2023-07-16T19:39:16.723Z,6.35
2023-07-16T19:41:43.407Z,3.10
2023-07-16T19:44:10.615Z,3.90
2023-07-16T19:46:37.281Z,2.90
2023-07-16T19:49:05.168Z,4.70
2023-07-16T19:51:31.988Z,3.83
2023-07-16T19:53:59.909Z,4.40
2023-07-16T19:56:26.584Z,4.93
2023-07-16T19:58:54.253Z,3.83
2023-07-16T20:01:21.134Z,3.83
2023-07-16T20:03:47.867Z,2.03
2023-07-16T20:06:14.637Z,2.65
2023-07-16T20:08:42.160Z,2.78
2023-07-16T20:11:08.772Z,3.60
2023-07-16T20:13:35.456Z,4.10
2023-07-16T20:16:02.160Z,2.63
2023-07-16T20:18:28.789Z,1.48
2023-07-16T20:20:57.259Z,5.80
2023-07-16T20:23:26.432Z,3.67
2023-07-16T20:25:53.441Z,2.63
2023-07-16T20:28:20.633Z,3.70
2023-07-16T20:30:47.796Z,3.75
2023-07-16T20:33:14.611Z,3.15
2023-07-16T20:35:41.228Z,3.20
2023-07-16T20:38:08.406Z,2.90
2023-07-16T20:40:35.669Z,1.30
2023-07-16T20:43:02.758Z,3.75
2023-07-16T20:45:31.241Z,2.78
2023-07-16T20:48:00.717Z,4.55
2023-07-16T20:50:28.849Z,3.63
2023-07-16T20:52:58.143Z,1.98
2023-07-16T20:55:25.981Z,2.25
2023-07-16T20:57:54.504Z,2.13
2023-07-16T21:00:25.477Z,2.72
2023-07-16T21:02:54.758Z,3.33
2023-07-16T21:05:23.901Z,2.75
2023-07-16T21:07:50.637Z,1.92
2023-07-16T21:10:19.496Z,5.47
2023-07-16T21:12:46.185Z,1.50
2023-07-16T21:15:14.074Z,3.67
2023-07-16T21:17:40.843Z,3.17
2023-07-16T21:20:10.532Z,2.85
2023-07-16T21:22:39.087Z,2.03
2023-07-16T21:25:06.904Z,2.33
2023-07-16T21:27:41.307Z,2.13
2023-07-16T21:30:08.416Z,1.52
2023-07-16T21:32:35.079Z,2.72
2023-07-16T21:35:01.695Z,2.83
2023-07-16T21:37:29.391Z,1.92
2023-07-16T21:39:56.989Z,3.37
2023-07-16T21:42:25.164Z,2.40
2023-07-16T21:44:51.793Z,2.42
2023-07-16T21:47:18.389Z,3.20
2023-07-16T21:49:46.251Z,1.90
2023-07-16T21:52:12.785Z,3.57
2023-07-16T21:54:39.643Z,3.30
2023-07-16T21:57:06.733Z,2.13
2023-07-16T21:59:33.446Z,2.90
2023-07-16T22:02:00.092Z,2.25
2023-07-16T22:04:27.175Z,3.20
2023-07-16T22:06:53.869Z,2.08
2023-07-16T22:09:20.819Z,2.40
2023-07-16T22:11:47.409Z,2.88
2023-07-16T22:14:13.999Z,1.95
2023-07-16T22:16:40.934Z,4.07
2023-07-16T22:19:21.193Z,1.95
2023-07-16T22:21:55.229Z,2.08
2023-07-16T22:24:22.386Z,3.45
2023-07-16T22:26:48.982Z,4.63
2023-07-16T22:29:15.635Z,3.73
2023-07-16T22:31:42.289Z,2.38
2023-07-16T22:34:08.981Z,3.28
2023-07-16T22:36:40.173Z,1.88
2023-07-16T22:39:06.738Z,4.25
2023-07-16T22:41:33.344Z,2.50
2023-07-16T22:43:59.942Z,2.63
2023-07-16T22:46:26.626Z,1.40
2023-07-16T22:48:54.346Z,2.38
2023-07-16T22:51:21.061Z,2.17
2023-07-16T22:53:47.767Z,3.83
2023-07-16T22:56:14.408Z,4.38
2023-07-16T22:58:41.014Z,2.65
2023-07-16T23:01:09.554Z,5.68
2023-07-16T23:03:37.070Z,2.38
2023-07-16T23:06:04.467Z,2.87
2023-07-16T23:08:31.062Z,5.68
2023-07-16T23:10:57.758Z,3.75
2023-07-16T23:13:24.348Z,2.38
2023-07-16T23:15:51.001Z,6.85
2023-07-16T23:18:17.669Z,4.53
2023-07-16T23:20:44.560Z,3.42
2023-07-16T23:23:11.229Z,4.88
2023-07-16T23:25:38.360Z,4.13
2023-07-16T23:28:07.628Z,2.83
2023-07-16T23:30:35.218Z,4.67
2023-07-16T23:33:04.489Z,5.13
2023-07-16T23:35:31.871Z,3.30
2023-07-16T23:37:58.619Z,6.63
2023-07-16T23:40:25.345Z,4.43
2023-07-16T23:42:51.958Z,8.60
2023-07-16T23:45:19.681Z,4.60
2023-07-16T23:47:46.452Z,7.22
2023-07-16T23:50:13.095Z,7.03
2023-07-16T23:52:39.710Z,5.38
2023-07-16T23:55:07.423Z,3.83
2023-07-16T23:57:37.487Z,6.47
